createdAt,value
2019-01-31T00:02:43.203Z,33.97
2019-01-31T00:05:46.590Z,24.40
2019-01-31T00:08:23.960Z,22.43
2019-01-31T00:11:07.503Z,15.10
2019-01-31T00:14:00.405Z,22.23
2019-01-31T00:16:37.770Z,14.70
2019-01-31T00:19:15.365Z,17.57
2019-01-31T00:21:47.009Z,16.90
2019-01-31T00:24:18.547Z,11.43
2019-01-31T00:26:56.119Z,10.90
2019-01-31T00:29:30.253Z,12.63
2019-01-31T00:32:18.658Z,14.60
2019-01-31T00:35:23.643Z,15.53
2019-01-31T00:38:11.488Z,15.20
2019-01-31T00:41:03.951Z,21.17
2019-01-31T00:43:47.374Z,13.27
2019-01-31T00:46:24.839Z,15.37
2019-01-31T00:49:13.305Z,16.60
2019-01-31T00:51:54.319Z,16.47
2019-01-31T00:54:31.611Z,17.95
2019-01-31T00:57:17.927Z,12.37
2019-01-31T01:00:06.512Z,14.50
2019-01-31T01:02:40.608Z,10.77
2019-01-31T01:05:23.711Z,9.58
2019-01-31T01:07:58.235Z,8.43
2019-01-31T01:10:29.810Z,6.37
2019-01-31T01:13:21.131Z,9.93
2019-01-31T01:15:58.709Z,5.97
2019-01-31T01:18:42.031Z,6.13
2019-01-31T01:21:34.228Z,3.97
2019-01-31T01:24:14.515Z,6.90
2019-01-31T01:26:54.901Z,4.73
2019-01-31T01:29:29.309Z,5.40
2019-01-31T01:32:09.638Z,4.70
2019-01-31T01:35:01.423Z,5.70
2019-01-31T01:37:47.630Z,5.53
2019-01-31T01:40:34.493Z,4.73
2019-01-31T01:43:06.069Z,5.67
2019-01-31T01:45:43.427Z,5.23
2019-01-31T01:48:15.231Z,6.27
2019-01-31T01:51:01.613Z,6.23
2019-01-31T01:53:38.748Z,9.07
2019-01-31T01:56:25.380Z,8.70
2019-01-31T01:58:59.942Z,8.37
2019-01-31T02:01:46.519Z,15.03
2019-01-31T02:04:33.127Z,11.97
2019-01-31T02:07:04.773Z,12.67
2019-01-31T02:09:36.429Z,12.33
2019-01-31T02:12:36.854Z,10.00
2019-01-31T02:15:40.576Z,10.80
2019-01-31T02:18:18.072Z,13.83
2019-01-31T02:20:58.514Z,14.20
2019-01-31T02:23:30.055Z,13.97
2019-01-31T02:26:22.885Z,17.33
2019-01-31T02:29:06.389Z,16.50
2019-01-31T02:31:52.980Z,17.00
2019-01-31T02:34:30.451Z,15.93
2019-01-31T02:37:10.677Z,15.80
2019-01-31T02:40:04.888Z,18.40
2019-01-31T02:42:45.486Z,19.67
2019-01-31T02:45:32.283Z,19.43
2019-01-31T02:48:09.533Z,20.77
2019-01-31T02:51:05.590Z,19.83
2019-01-31T02:53:58.194Z,21.73
2019-01-31T02:56:29.724Z,19.17
2019-01-31T02:59:07.277Z,21.43
2019-01-31T03:01:51.134Z,27.20
2019-01-31T03:04:28.628Z,23.33
2019-01-31T03:07:12.195Z,23.03
2019-01-31T03:09:54.883Z,25.43
2019-01-31T03:12:28.805Z,21.03
2019-01-31T03:15:00.395Z,23.30
2019-01-31T03:17:52.928Z,23.13
2019-01-31T03:20:33.764Z,20.57
2019-01-31T03:23:26.444Z,21.53
2019-01-31T03:26:06.662Z,22.73
2019-01-31T03:28:54.425Z,32.97
2019-01-31T03:31:43.989Z,33.47
2019-01-31T03:34:21.352Z,39.87
2019-01-31T03:37:09.710Z,28.60
2019-01-31T03:40:07.599Z,28.20
2019-01-31T03:42:42.151Z,28.13
2019-01-31T03:45:19.685Z,27.00
2019-01-31T03:47:51.562Z,26.17
2019-01-31T03:50:23.220Z,27.80
2019-01-31T03:53:09.658Z,24.63
2019-01-31T03:55:57.691Z,23.83
2019-01-31T03:58:32.479Z,25.60
2019-01-31T04:01:07.044Z,26.13
2019-01-31T04:03:38.777Z,22.77
2019-01-31T04:06:13.048Z,23.30
2019-01-31T04:08:41.676Z,15.83
2019-01-31T04:11:10.355Z,16.03
2019-01-31T04:13:39.099Z,12.50
2019-01-31T04:16:07.734Z,17.37
2019-01-31T04:18:36.410Z,15.57
2019-01-31T04:21:05.212Z,16.93
2019-01-31T04:23:33.935Z,20.60
2019-01-31T04:26:04.402Z,18.63
2019-01-31T04:28:33.037Z,17.80
2019-01-31T04:31:01.674Z,21.53
2019-01-31T04:33:30.365Z,19.23
2019-01-31T04:35:59.081Z,23.10
2019-01-31T04:38:27.799Z,20.77
2019-01-31T04:40:56.510Z,20.20
2019-01-31T04:43:25.142Z,20.37
2019-01-31T04:45:53.867Z,17.37
2019-01-31T04:48:22.533Z,16.30
2019-01-31T04:50:51.159Z,18.63
2019-01-31T04:53:19.829Z,20.47
2019-01-31T04:55:48.512Z,18.80
2019-01-31T04:58:17.230Z,19.20
2019-01-31T05:00:45.853Z,19.10
2019-01-31T05:03:14.785Z,20.17
2019-01-31T05:05:43.431Z,21.07
2019-01-31T05:08:12.133Z,22.80
2019-01-31T05:10:43.338Z,21.90
2019-01-31T05:13:11.149Z,22.77
2019-01-31T05:15:39.823Z,21.73
2019-01-31T05:18:08.710Z,20.93
2019-01-31T05:20:37.404Z,22.10
2019-01-31T05:23:06.040Z,21.40
2019-01-31T05:25:34.772Z,22.50
2019-01-31T05:28:03.456Z,28.00
2019-01-31T05:30:32.082Z,23.57
2019-01-31T05:33:00.831Z,24.37
2019-01-31T05:35:29.470Z,24.47
2019-01-31T05:37:58.119Z,25.87
2019-01-31T05:40:26.820Z,37.73
2019-01-31T05:42:55.433Z,27.97
2019-01-31T05:45:24.178Z,36.00
2019-01-31T05:47:52.827Z,47.10
2019-01-31T05:50:21.632Z,40.80
2019-01-31T05:52:50.541Z,37.90
2019-01-31T05:55:19.180Z,40.00
2019-01-31T05:57:47.822Z,40.57
2019-01-31T06:00:20.767Z,48.83
2019-01-31T06:02:49.472Z,46.60
2019-01-31T06:05:18.199Z,38.33
2019-01-31T06:07:46.860Z,37.03
2019-01-31T06:10:15.576Z,30.63
2019-01-31T06:12:44.277Z,30.97
2019-01-31T06:15:15.732Z,34.60
2019-01-31T06:17:44.481Z,43.23
2019-01-31T06:20:18.617Z,45.33
2019-01-31T06:22:47.304Z,78.25
2019-01-31T06:25:16.013Z,65.67
2019-01-31T06:27:44.709Z,39.53
2019-01-31T06:30:16.148Z,32.10
2019-01-31T06:32:45.048Z,31.70
2019-01-31T06:35:14.356Z,29.87
2019-01-31T06:37:43.371Z,38.78
2019-01-31T06:40:15.142Z,38.87
2019-01-31T06:42:43.764Z,37.83
2019-01-31T06:45:17.685Z,37.20
2019-01-31T06:47:46.382Z,53.23
2019-01-31T06:50:15.214Z,37.13
2019-01-31T06:52:43.972Z,45.17
2019-01-31T06:55:13.251Z,40.63
2019-01-31T06:57:41.930Z,50.73
2019-01-31T07:00:16.247Z,75.32
2019-01-31T07:02:44.945Z,102.38
2019-01-31T07:05:13.778Z,121.62
2019-01-31T07:07:42.649Z,138.62
2019-01-31T07:10:14.258Z,101.30
2019-01-31T07:12:42.963Z,99.67
2019-01-31T07:17:46.395Z,99.63
2019-01-31T07:20:16.798Z,103.83
2019-01-31T07:22:45.430Z,110.70
2019-01-31T07:25:22.270Z,111.40
2019-01-31T07:27:50.950Z,105.58
2019-01-31T07:30:26.321Z,106.67
2019-01-31T07:32:54.193Z,107.50
2019-01-31T07:35:22.843Z,112.42
2019-01-31T07:37:53.098Z,98.03
2019-01-31T07:40:23.128Z,112.03
2019-01-31T07:42:51.822Z,106.78
2019-01-31T07:45:29.167Z,113.87
2019-01-31T07:47:57.981Z,105.03
2019-01-31T07:50:26.631Z,100.42
2019-01-31T07:52:55.570Z,95.67
2019-01-31T07:55:24.276Z,96.80
2019-01-31T07:57:52.978Z,89.22
2019-01-31T08:00:23.446Z,98.03
2019-01-31T08:02:52.262Z,86.95
2019-01-31T08:05:22.771Z,86.43
2019-01-31T08:07:53.171Z,84.80
2019-01-31T08:10:31.454Z,94.30
2019-01-31T08:13:00.115Z,86.80
2019-01-31T08:15:28.809Z,124.07
2019-01-31T08:17:57.450Z,114.72
2019-01-31T08:20:26.439Z,93.15
2019-01-31T08:22:55.246Z,82.15
2019-01-31T08:25:25.208Z,88.75
2019-01-31T08:27:54.873Z,87.72
2019-01-31T08:30:37.788Z,95.50
2019-01-31T08:33:06.027Z,107.40
2019-01-31T08:35:34.810Z,113.20
2019-01-31T08:38:03.455Z,108.97
2019-01-31T08:40:32.295Z,115.45
2019-01-31T08:43:01.009Z,115.28
2019-01-31T08:45:29.638Z,128.65
2019-01-31T08:47:58.331Z,132.37
2019-01-31T08:50:29.335Z,148.65
2019-01-31T08:52:58.037Z,146.82
2019-01-31T08:55:26.734Z,126.15
2019-01-31T08:57:55.365Z,84.85
2019-01-31T09:00:29.521Z,71.22
2019-01-31T09:02:58.662Z,127.00
2019-01-31T09:05:27.560Z,147.87
2019-01-31T09:07:56.682Z,171.75
2019-01-31T09:10:30.489Z,166.62
2019-01-31T09:13:00.694Z,157.20
2019-01-31T09:15:29.429Z,144.43
2019-01-31T09:17:58.099Z,128.05
2019-01-31T09:20:30.066Z,139.85
2019-01-31T09:23:01.641Z,99.58
2019-01-31T09:25:42.434Z,61.35
2019-01-31T09:28:22.719Z,79.40
2019-01-31T09:30:54.437Z,45.15
2019-01-31T09:33:50.019Z,56.73
2019-01-31T09:36:39.749Z,49.27
2019-01-31T09:39:17.421Z,43.78
2019-01-31T09:42:08.606Z,52.45
2019-01-31T09:45:13.701Z,47.65
2019-01-31T09:47:54.148Z,30.40
2019-01-31T09:50:34.940Z,36.20
2019-01-31T09:53:18.508Z,32.03
2019-01-31T09:55:52.960Z,31.93
2019-01-31T09:58:24.543Z,30.37
2019-01-31T10:01:05.220Z,37.50
2019-01-31T10:03:39.581Z,27.22
2019-01-31T10:06:22.795Z,27.20
2019-01-31T10:09:12.499Z,31.45
2019-01-31T10:11:49.839Z,27.45
2019-01-31T10:14:26.922Z,34.80
2019-01-31T10:17:09.896Z,26.80
2019-01-31T10:19:47.316Z,28.20
2019-01-31T10:22:22.097Z,28.47
2019-01-31T10:25:16.630Z,33.33
2019-01-31T10:28:05.084Z,27.67
2019-01-31T10:30:51.345Z,28.25
2019-01-31T10:33:37.756Z,32.93
2019-01-31T10:36:20.916Z,36.58
2019-01-31T10:39:16.771Z,24.85
2019-01-31T10:41:59.690Z,28.57
2019-01-31T10:44:52.474Z,27.82
2019-01-31T10:47:39.269Z,28.85
2019-01-31T10:50:26.004Z,36.88
2019-01-31T10:53:17.283Z,30.85
2019-01-31T10:56:13.142Z,29.23
2019-01-31T10:58:54.006Z,29.18
2019-01-31T11:01:37.337Z,26.97
2019-01-31T11:04:27.144Z,30.62
2019-01-31T11:07:01.676Z,31.75
2019-01-31T11:09:39.341Z,29.10
2019-01-31T11:12:38.421Z,29.42
2019-01-31T11:15:10.078Z,27.55
2019-01-31T11:17:47.379Z,29.80
2019-01-31T11:20:38.491Z,36.63
2019-01-31T11:23:10.029Z,35.60
2019-01-31T11:25:59.620Z,28.15
2019-01-31T11:28:31.171Z,29.40
2019-01-31T11:31:22.553Z,28.77
2019-01-31T11:34:10.938Z,48.20
2019-01-31T11:36:42.520Z,28.77
2019-01-31T11:39:35.322Z,29.52
2019-01-31T11:42:26.517Z,25.52
2019-01-31T11:45:00.877Z,33.13
2019-01-31T11:47:38.193Z,31.68
2019-01-31T11:50:30.629Z,32.73
2019-01-31T11:53:05.170Z,32.93
2019-01-31T11:55:42.779Z,42.05
2019-01-31T11:58:40.274Z,38.60
2019-01-31T12:01:10.263Z,57.80
2019-01-31T12:03:38.894Z,35.85
2019-01-31T12:06:07.647Z,47.58
2019-01-31T12:08:36.363Z,39.83
2019-01-31T12:11:05.285Z,39.20
2019-01-31T12:13:34.033Z,32.53
2019-01-31T12:16:02.891Z,34.83
2019-01-31T12:18:31.607Z,38.80
2019-01-31T12:21:00.590Z,33.33
2019-01-31T12:23:32.270Z,36.73
2019-01-31T12:25:59.813Z,34.80
2019-01-31T12:28:28.553Z,39.78
2019-01-31T12:30:57.300Z,50.05
2019-01-31T12:33:25.983Z,34.58
2019-01-31T12:35:54.890Z,33.18
2019-01-31T12:38:23.497Z,41.80
2019-01-31T12:40:52.122Z,33.78
2019-01-31T12:43:20.901Z,31.12
2019-01-31T12:45:49.577Z,35.40
2019-01-31T12:48:18.207Z,46.65
2019-01-31T12:50:46.875Z,44.90
2019-01-31T12:53:15.581Z,31.75
2019-01-31T12:55:44.301Z,39.70
2019-01-31T12:58:13.033Z,35.70
2019-01-31T13:00:41.742Z,39.03
2019-01-31T13:03:10.452Z,34.88
2019-01-31T13:05:39.341Z,37.58
2019-01-31T13:08:08.061Z,37.40
2019-01-31T13:10:36.762Z,43.00
2019-01-31T13:13:06.188Z,31.60
2019-01-31T13:15:40.852Z,34.38
2019-01-31T13:18:10.149Z,35.65
2019-01-31T13:20:39.017Z,44.33
2019-01-31T13:23:07.758Z,44.93
2019-01-31T13:25:36.357Z,37.95
2019-01-31T13:28:05.305Z,47.38
2019-01-31T13:30:33.980Z,44.90
2019-01-31T13:33:02.775Z,44.80
2019-01-31T13:35:31.539Z,42.27
2019-01-31T13:38:00.243Z,46.83
2019-01-31T13:40:28.957Z,50.58
2019-01-31T13:42:57.731Z,42.15
2019-01-31T13:45:29.263Z,47.15
2019-01-31T13:47:59.783Z,43.83
2019-01-31T13:50:28.729Z,47.83
2019-01-31T13:52:57.536Z,45.78
2019-01-31T13:55:28.530Z,51.73
2019-01-31T13:57:57.199Z,48.10
2019-01-31T14:00:26.136Z,58.63
2019-01-31T14:02:54.928Z,57.43
2019-01-31T14:05:25.614Z,56.50
2019-01-31T14:07:54.587Z,56.80
2019-01-31T14:10:27.260Z,59.05
2019-01-31T14:12:56.125Z,58.40
2019-01-31T14:15:33.559Z,64.12
2019-01-31T14:17:58.328Z,56.68
2019-01-31T14:20:28.497Z,72.53
2019-01-31T14:22:57.318Z,73.17
2019-01-31T14:25:26.084Z,73.15
2019-01-31T14:27:54.944Z,57.50
2019-01-31T14:30:29.383Z,43.70
2019-01-31T14:32:58.622Z,44.83
2019-01-31T14:35:27.753Z,45.45
2019-01-31T14:37:56.454Z,50.00
2019-01-31T14:40:25.546Z,41.28
2019-01-31T14:42:54.450Z,29.27
2019-01-31T14:45:23.071Z,35.88
2019-01-31T14:47:58.406Z,35.33
2019-01-31T14:50:29.605Z,28.38
2019-01-31T14:52:58.538Z,33.75
2019-01-31T14:55:27.299Z,41.80
2019-01-31T14:57:56.378Z,39.92
2019-01-31T15:00:27.687Z,36.50
2019-01-31T15:02:56.299Z,37.17
2019-01-31T15:05:25.141Z,33.28
2019-01-31T15:07:53.768Z,35.73
2019-01-31T15:10:27.768Z,31.97
2019-01-31T15:12:56.597Z,32.70
2019-01-31T15:15:25.483Z,33.05
2019-01-31T15:17:54.402Z,23.00
2019-01-31T15:20:38.081Z,2.42
2019-01-31T15:23:05.426Z,0.80
2019-01-31T15:25:34.053Z,2.55
2019-01-31T15:28:02.713Z,6.47
2019-01-31T15:30:38.162Z,5.90
2019-01-31T15:33:09.394Z,4.83
2019-01-31T15:35:38.019Z,4.35
2019-01-31T15:38:06.780Z,4.03
2019-01-31T15:40:46.648Z,2.50
2019-01-31T15:43:15.332Z,4.15
2019-01-31T15:45:44.045Z,4.90
2019-01-31T15:48:12.934Z,6.13
2019-01-31T15:50:41.606Z,4.87
2019-01-31T15:53:10.260Z,9.53
2019-01-31T15:55:39.270Z,1.20
2019-01-31T15:58:08.319Z,2.80
2019-01-31T16:00:45.679Z,4.70
2019-01-31T16:03:16.427Z,4.30
2019-01-31T16:05:45.124Z,2.77
2019-01-31T16:08:13.817Z,3.13
2019-01-31T16:10:42.575Z,2.30
2019-01-31T16:13:11.385Z,2.60
2019-01-31T16:15:40.652Z,2.63
2019-01-31T16:18:11.130Z,2.40
2019-01-31T16:20:40.161Z,6.60
2019-01-31T16:23:09.671Z,10.43
2019-01-31T16:25:38.467Z,9.87
2019-01-31T16:28:07.403Z,5.27
2019-01-31T16:30:36.098Z,7.07
2019-01-31T16:33:05.383Z,11.20
2019-01-31T16:35:34.079Z,3.60
2019-01-31T16:38:02.971Z,4.07
2019-01-31T16:40:31.964Z,10.13
2019-01-31T16:43:01.151Z,7.53
2019-01-31T16:45:29.989Z,4.30
2019-01-31T16:47:58.741Z,5.37
2019-01-31T16:50:27.479Z,7.07
2019-01-31T16:52:56.104Z,2.72
2019-01-31T16:55:27.897Z,5.03
2019-01-31T16:57:57.701Z,5.83
2019-01-31T17:00:34.041Z,4.67
2019-01-31T17:03:05.140Z,6.77
2019-01-31T17:05:33.656Z,7.00
2019-01-31T17:08:02.485Z,4.17
2019-01-31T17:10:31.138Z,3.57
2019-01-31T17:13:00.039Z,2.75
2019-01-31T17:15:28.929Z,5.17
2019-01-31T17:17:57.837Z,6.97
2019-01-31T17:20:32.504Z,10.08
2019-01-31T17:23:01.190Z,5.13
2019-01-31T17:25:29.935Z,8.23
2019-01-31T17:27:58.993Z,5.53
2019-01-31T17:30:29.132Z,4.42
2019-01-31T17:33:00.234Z,4.62
2019-01-31T17:35:28.216Z,3.37
2019-01-31T17:37:56.849Z,5.43
2019-01-31T17:40:31.318Z,9.03
2019-01-31T17:43:00.172Z,17.37
2019-01-31T17:45:30.834Z,33.13
2019-01-31T17:47:59.559Z,35.83
2019-01-31T17:50:28.501Z,43.77
2019-01-31T17:52:57.130Z,45.10
2019-01-31T17:55:27.292Z,32.00
2019-01-31T17:57:55.990Z,33.10
2019-01-31T18:00:33.845Z,32.53
2019-01-31T18:03:02.813Z,35.43
2019-01-31T18:05:31.504Z,32.50
2019-01-31T18:08:00.443Z,27.83
2019-01-31T18:10:29.196Z,20.68
2019-01-31T18:12:57.947Z,29.47
2019-01-31T18:15:27.175Z,16.73
2019-01-31T18:17:55.804Z,18.02
2019-01-31T18:20:24.818Z,11.63
2019-01-31T18:22:53.686Z,14.83
2019-01-31T18:25:22.361Z,16.73
2019-01-31T18:27:53.081Z,15.78
2019-01-31T18:30:29.698Z,9.20
2019-01-31T18:32:58.407Z,6.62
2019-01-31T18:35:27.120Z,7.37
2019-01-31T18:37:55.777Z,3.08
2019-01-31T18:40:26.963Z,4.00
2019-01-31T18:42:55.657Z,2.15
2019-01-31T18:45:26.584Z,1.80
2019-01-31T18:47:55.220Z,2.37
2019-01-31T18:50:34.795Z,14.27
2019-01-31T18:53:03.614Z,18.82
2019-01-31T18:55:32.462Z,29.70
2019-01-31T18:58:01.156Z,30.00
2019-01-31T19:00:32.656Z,24.73
2019-01-31T19:03:01.445Z,23.13
2019-01-31T19:05:30.618Z,16.87
2019-01-31T19:07:59.322Z,14.53
2019-01-31T19:10:28.005Z,10.67
2019-01-31T19:12:56.865Z,10.27
2019-01-31T19:15:27.292Z,26.37
2019-01-31T19:18:05.502Z,32.83
2019-01-31T19:20:31.634Z,5.30
2019-01-31T19:23:02.540Z,3.63
2019-01-31T19:25:32.438Z,6.97
2019-01-31T19:28:01.445Z,2.90
2019-01-31T19:30:35.549Z,5.63
2019-01-31T19:33:05.062Z,7.10
2019-01-31T19:35:33.826Z,2.77
2019-01-31T19:38:02.696Z,19.48
2019-01-31T19:40:33.608Z,7.43
2019-01-31T19:43:02.277Z,18.83
2019-01-31T19:45:33.625Z,11.03
2019-01-31T19:48:05.238Z,13.50
2019-01-31T19:50:33.059Z,16.20
2019-01-31T19:53:01.799Z,19.40
2019-01-31T19:55:30.443Z,11.07
2019-01-31T19:57:59.160Z,11.33
2019-01-31T20:00:28.395Z,13.23
2019-01-31T20:02:57.027Z,15.13
2019-01-31T20:05:26.212Z,12.80
2019-01-31T20:07:55.414Z,12.83
2019-01-31T20:10:27.034Z,11.63
2019-01-31T20:12:56.281Z,10.23
2019-01-31T20:15:25.466Z,9.07
2019-01-31T20:17:54.347Z,9.37
2019-01-31T20:20:29.977Z,9.03
2019-01-31T20:22:59.898Z,14.87
2019-01-31T20:25:30.098Z,18.93
2019-01-31T20:27:58.848Z,19.93
2019-01-31T20:30:29.757Z,26.87
2019-01-31T20:32:59.260Z,32.80
2019-01-31T20:35:28.036Z,27.90
2019-01-31T20:37:56.661Z,25.07
2019-01-31T20:40:28.031Z,18.73
2019-01-31T20:42:56.713Z,20.80
2019-01-31T20:45:25.627Z,18.30
2019-01-31T20:47:54.247Z,19.43
2019-01-31T20:50:28.074Z,22.07
2019-01-31T20:52:56.986Z,20.70
2019-01-31T20:55:25.619Z,19.97
2019-01-31T20:57:54.454Z,19.77
2019-01-31T21:00:33.745Z,20.20
2019-01-31T21:03:02.880Z,15.00
2019-01-31T21:05:31.701Z,9.40
2019-01-31T21:08:00.381Z,6.43
2019-01-31T21:10:29.128Z,6.50
2019-01-31T21:12:57.742Z,9.47
2019-01-31T21:15:26.855Z,10.33
2019-01-31T21:17:55.756Z,5.20
2019-01-31T21:20:26.771Z,8.57
2019-01-31T21:22:55.750Z,6.47
2019-01-31T21:25:27.655Z,7.73
2019-01-31T21:27:56.363Z,11.17
2019-01-31T21:30:36.732Z,14.67
2019-01-31T21:33:05.529Z,17.00
2019-01-31T21:35:34.419Z,17.97
2019-01-31T21:38:03.173Z,17.80
2019-01-31T21:40:33.659Z,12.50
2019-01-31T21:43:02.345Z,9.20
2019-01-31T21:45:31.392Z,10.33
2019-01-31T21:48:00.020Z,10.20
2019-01-31T21:50:32.748Z,11.43
2019-01-31T21:53:01.482Z,15.13
2019-01-31T21:55:30.168Z,17.77
2019-01-31T21:57:58.860Z,23.90
2019-01-31T22:00:29.928Z,18.73
2019-01-31T22:02:58.738Z,17.07
2019-01-31T22:05:27.428Z,15.23
2019-01-31T22:07:56.203Z,10.20
2019-01-31T22:10:25.806Z,11.40
2019-01-31T22:12:54.620Z,9.03
2019-01-31T22:15:27.891Z,9.97
2019-01-31T22:17:59.937Z,5.57
2019-01-31T22:20:26.959Z,2.83
2019-01-31T22:22:56.258Z,2.63
2019-01-31T22:25:26.284Z,1.70
2019-01-31T22:27:54.968Z,2.30
2019-01-31T22:30:31.741Z,3.97
2019-01-31T22:33:00.361Z,8.37
2019-01-31T22:35:29.047Z,19.00
2019-01-31T22:37:57.709Z,17.80
2019-01-31T22:40:26.414Z,20.67
2019-01-31T22:42:55.034Z,21.10
2019-01-31T22:45:24.778Z,15.87
2019-01-31T22:47:54.890Z,13.90
2019-01-31T22:50:24.076Z,14.70
2019-01-31T22:52:52.941Z,14.40
2019-01-31T22:55:23.557Z,13.50
2019-01-31T22:57:52.426Z,12.83
2019-01-31T23:00:31.742Z,13.23
2019-01-31T23:03:00.400Z,9.83
2019-01-31T23:05:29.032Z,12.87
2019-01-31T23:07:57.857Z,13.60
2019-01-31T23:10:26.483Z,13.17
2019-01-31T23:12:55.210Z,11.10
2019-01-31T23:15:23.887Z,10.63
2019-01-31T23:17:52.509Z,13.30
2019-01-31T23:20:21.126Z,14.87
2019-01-31T23:22:49.834Z,18.07
2019-01-31T23:25:18.585Z,13.80
2019-01-31T23:27:47.213Z,12.93
2019-01-31T23:30:17.522Z,12.93
2019-01-31T23:32:46.207Z,12.17
2019-01-31T23:35:14.908Z,13.30
2019-01-31T23:37:43.784Z,12.20
2019-01-31T23:40:14.211Z,8.57
2019-01-31T23:42:50.832Z,12.37
2019-01-31T23:45:20.286Z,10.43
2019-01-31T23:47:49.368Z,11.30
2019-01-31T23:50:18.368Z,9.20
2019-01-31T23:52:47.375Z,9.23
2019-01-31T23:55:19.170Z,10.67
2019-01-31T23:57:47.790Z,7.40
